sensor_id;sensor_type;location;lat;lon;timestamp;pressure;altitude;pressure_sealevel;temperature;humidity
56681;BME280;42558;52.388;13.390;2023-02-18T00:02:14;101060.27;;;5.93;82.58
56681;BME280;42558;52.388;13.390;2023-02-18T00:04:44;101061.58;;;5.91;82.73
56681;BME280;42558;52.388;13.390;2023-02-18T00:07:13;101064.30;;;5.85;82.93
56681;BME280;42558;52.388;13.390;2023-02-18T00:09:43;101070.23;;;5.89;82.65
56681;BME280;42558;52.388;13.390;2023-02-18T00:12:16;101076.43;;;5.83;83.21
56681;BME280;42558;52.388;13.390;2023-02-18T00:14:46;101074.60;;;5.85;83.11
56681;BME280;42558;52.388;13.390;2023-02-18T00:17:16;101077.60;;;5.86;83.13
56681;BME280;42558;52.388;13.390;2023-02-18T00:19:46;101073.71;;;5.89;82.95
56681;BME280;42558;52.388;13.390;2023-02-18T00:22:16;101077.69;;;5.83;83.33
56681;BME280;42558;52.388;13.390;2023-02-18T00:24:46;101078.10;;;5.81;83.09
56681;BME280;42558;52.388;13.390;2023-02-18T00:27:16;101081.09;;;5.72;83.81
56681;BME280;42558;52.388;13.390;2023-02-18T00:29:46;101081.64;;;5.77;83.50
56681;BME280;42558;52.388;13.390;2023-02-18T00:32:16;101079.41;;;5.74;83.83
56681;BME280;42558;52.388;13.390;2023-02-18T00:34:46;101086.24;;;5.70;84.10
56681;BME280;42558;52.388;13.390;2023-02-18T00:37:15;101087.25;;;5.64;83.97
56681;BME280;42558;52.388;13.390;2023-02-18T00:39:45;101081.92;;;5.62;83.97
56681;BME280;42558;52.388;13.390;2023-02-18T00:42:15;101087.48;;;5.57;84.27
56681;BME280;42558;52.388;13.390;2023-02-18T00:44:45;101091.36;;;5.54;84.49
56681;BME280;42558;52.388;13.390;2023-02-18T00:47:15;101093.23;;;5.53;84.48
56681;BME280;42558;52.388;13.390;2023-02-18T00:49:45;101095.27;;;5.47;84.84
56681;BME280;42558;52.388;13.390;2023-02-18T00:52:15;101096.25;;;5.49;84.41
56681;BME280;42558;52.388;13.390;2023-02-18T00:54:45;101102.34;;;5.53;84.22
56681;BME280;42558;52.388;13.390;2023-02-18T00:57:15;101101.80;;;5.49;84.41
56681;BME280;42558;52.388;13.390;2023-02-18T00:59:45;101101.60;;;5.44;84.60
56681;BME280;42558;52.388;13.390;2023-02-18T01:02:15;101100.77;;;5.31;85.38
56681;BME280;42558;52.388;13.390;2023-02-18T01:04:44;101109.08;;;5.35;85.11
56681;BME280;42558;52.388;13.390;2023-02-18T01:07:15;101104.17;;;5.30;85.22
56681;BME280;42558;52.388;13.390;2023-02-18T01:09:44;101102.09;;;5.26;85.45
56681;BME280;42558;52.388;13.390;2023-02-18T01:12:15;101101.45;;;5.22;85.46
56681;BME280;42558;52.388;13.390;2023-02-18T01:14:45;101096.30;;;5.16;85.94
56681;BME280;42558;52.388;13.390;2023-02-18T01:17:15;101101.20;;;5.16;86.00
56681;BME280;42558;52.388;13.390;2023-02-18T01:19:45;101097.02;;;5.16;86.08
56681;BME280;42558;52.388;13.390;2023-02-18T01:22:14;101097.05;;;5.09;86.89
56681;BME280;42558;52.388;13.390;2023-02-18T01:24:44;101096.89;;;5.05;87.02
56681;BME280;42558;52.388;13.390;2023-02-18T01:27:15;101102.48;;;5.09;86.98
56681;BME280;42558;52.388;13.390;2023-02-18T01:29:44;101103.54;;;5.18;86.12
56681;BME280;42558;52.388;13.390;2023-02-18T01:32:14;101098.83;;;5.14;86.54
56681;BME280;42558;52.388;13.390;2023-02-18T01:34:45;101096.48;;;5.16;86.38
56681;BME280;42558;52.388;13.390;2023-02-18T01:37:15;101093.20;;;5.12;86.87
56681;BME280;42558;52.388;13.390;2023-02-18T01:39:45;101088.16;;;5.08;87.24
56681;BME280;42558;52.388;13.390;2023-02-18T01:42:22;101099.33;;;5.13;87.02
56681;BME280;42558;52.388;13.390;2023-02-18T01:45:39;101095.62;;;5.16;86.69
56681;BME280;42558;52.388;13.390;2023-02-18T01:47:43;101095.92;;;5.11;87.19
56681;BME280;42558;52.388;13.390;2023-02-18T01:50:13;101100.34;;;5.04;87.45
56681;BME280;42558;52.388;13.390;2023-02-18T01:52:43;101098.69;;;5.02;87.59
56681;BME280;42558;52.388;13.390;2023-02-18T01:55:13;101094.12;;;5.05;87.40
56681;BME280;42558;52.388;13.390;2023-02-18T01:57:43;101100.65;;;5.07;87.21
56681;BME280;42558;52.388;13.390;2023-02-18T02:00:18;101098.62;;;5.00;87.65
56681;BME280;42558;52.388;13.390;2023-02-18T02:02:51;101100.54;;;4.96;87.97
56681;BME280;42558;52.388;13.390;2023-02-18T02:05:22;101100.72;;;4.88;88.58
56681;BME280;42558;52.388;13.390;2023-02-18T02:07:53;101105.67;;;4.94;88.08
56681;BME280;42558;52.388;13.390;2023-02-18T02:10:37;101106.31;;;5.01;87.41
56681;BME280;42558;52.388;13.390;2023-02-18T02:16:50;101107.66;;;4.96;87.63
56681;BME280;42558;52.388;13.390;2023-02-18T02:32:31;101106.86;;;4.81;88.54
56681;BME280;42558;52.388;13.390;2023-02-18T02:35:24;101106.34;;;4.89;87.92
56681;BME280;42558;52.388;13.390;2023-02-18T02:41:38;101103.44;;;4.86;87.81
56681;BME280;42558;52.388;13.390;2023-02-18T02:47:11;101096.14;;;4.87;87.42
56681;BME280;42558;52.388;13.390;2023-02-18T02:50:25;101096.08;;;4.89;86.91
56681;BME280;42558;52.388;13.390;2023-02-18T02:53:03;101097.20;;;4.87;86.82
56681;BME280;42558;52.388;13.390;2023-02-18T02:55:36;101103.09;;;4.86;86.78
56681;BME280;42558;52.388;13.390;2023-02-18T02:58:15;101115.11;;;4.78;87.24
56681;BME280;42558;52.388;13.390;2023-02-18T03:01:39;101112.91;;;4.84;86.78
56681;BME280;42558;52.388;13.390;2023-02-18T03:13:36;101114.05;;;4.86;85.63
56681;BME280;42558;52.388;13.390;2023-02-18T03:17:14;101115.65;;;4.78;85.86
56681;BME280;42558;52.388;13.390;2023-02-18T03:22:11;101113.96;;;4.68;86.05
56681;BME280;42558;52.388;13.390;2023-02-18T03:24:48;101111.20;;;4.72;85.75
56681;BME280;42558;52.388;13.390;2023-02-18T03:27:31;101116.25;;;4.77;85.35
56681;BME280;42558;52.388;13.390;2023-02-18T03:30:18;101115.48;;;4.75;85.34
56681;BME280;42558;52.388;13.390;2023-02-18T03:32:58;101112.68;;;4.74;85.36
56681;BME280;42558;52.388;13.390;2023-02-18T03:35:29;101115.71;;;4.80;85.00
56681;BME280;42558;52.388;13.390;2023-02-18T03:38:17;101112.61;;;4.76;85.34
56681;BME280;42558;52.388;13.390;2023-02-18T03:40:48;101114.14;;;4.72;85.27
56681;BME280;42558;52.388;13.390;2023-02-18T03:43:18;101111.75;;;4.64;85.80
56681;BME280;42558;52.388;13.390;2023-02-18T03:45:48;101113.38;;;4.75;85.00
56681;BME280;42558;52.388;13.390;2023-02-18T03:48:18;101108.23;;;4.63;85.45
56681;BME280;42558;52.388;13.390;2023-02-18T03:50:48;101109.56;;;4.54;85.86
56681;BME280;42558;52.388;13.390;2023-02-18T03:53:18;101107.94;;;4.53;85.70
56681;BME280;42558;52.388;13.390;2023-02-18T03:55:48;101106.63;;;4.59;85.12
56681;BME280;42558;52.388;13.390;2023-02-18T03:58:18;101105.55;;;4.54;85.38
56681;BME280;42558;52.388;13.390;2023-02-18T04:00:47;101104.88;;;4.51;85.55
56681;BME280;42558;52.388;13.390;2023-02-18T04:03:17;101106.88;;;4.52;85.41
56681;BME280;42558;52.388;13.390;2023-02-18T04:05:47;101106.33;;;4.40;85.91
56681;BME280;42558;52.388;13.390;2023-02-18T04:08:17;101099.96;;;4.46;85.62
56681;BME280;42558;52.388;13.390;2023-02-18T04:10:47;101099.67;;;4.47;85.40
56681;BME280;42558;52.388;13.390;2023-02-18T04:13:17;101105.13;;;4.40;85.76
56681;BME280;42558;52.388;13.390;2023-02-18T04:15:51;101105.38;;;4.38;86.00
56681;BME280;42558;52.388;13.390;2023-02-18T04:18:21;101113.15;;;4.41;85.82
56681;BME280;42558;52.388;13.390;2023-02-18T04:20:49;101108.88;;;4.31;86.40
56681;BME280;42558;52.388;13.390;2023-02-18T04:23:17;101111.64;;;4.38;86.02
56681;BME280;42558;52.388;13.390;2023-02-18T04:25:46;101112.96;;;4.33;86.19
56681;BME280;42558;52.388;13.390;2023-02-18T04:28:16;101112.61;;;4.33;86.29
56681;BME280;42558;52.388;13.390;2023-02-18T04:30:45;101112.31;;;4.33;86.14
56681;BME280;42558;52.388;13.390;2023-02-18T04:33:15;101107.11;;;4.30;86.09
56681;BME280;42558;52.388;13.390;2023-02-18T04:35:43;101109.26;;;4.28;86.30
56681;BME280;42558;52.388;13.390;2023-02-18T04:38:13;101111.91;;;4.29;86.21
56681;BME280;42558;52.388;13.390;2023-02-18T04:40:43;101116.11;;;4.33;85.79
56681;BME280;42558;52.388;13.390;2023-02-18T04:43:13;101120.22;;;4.31;86.09
56681;BME280;42558;52.388;13.390;2023-02-18T04:45:43;101124.44;;;4.33;86.09
56681;BME280;42558;52.388;13.390;2023-02-18T04:48:13;101127.80;;;4.38;86.36
56681;BME280;42558;52.388;13.390;2023-02-18T04:50:44;101126.08;;;4.42;86.42
56681;BME280;42558;52.388;13.390;2023-02-18T04:53:13;101125.48;;;4.48;86.15
56681;BME280;42558;52.388;13.390;2023-02-18T04:55:49;101126.36;;;4.56;85.86
56681;BME280;42558;52.388;13.390;2023-02-18T04:58:20;101124.88;;;4.62;85.64
56681;BME280;42558;52.388;13.390;2023-02-18T05:00:48;101122.30;;;4.71;84.92
56681;BME280;42558;52.388;13.390;2023-02-18T05:03:17;101122.33;;;4.72;84.90
56681;BME280;42558;52.388;13.390;2023-02-18T05:05:45;101124.13;;;4.81;84.53
56681;BME280;42558;52.388;13.390;2023-02-18T05:08:13;101122.60;;;4.78;84.59
56681;BME280;42558;52.388;13.390;2023-02-18T05:10:42;101124.98;;;4.85;84.26
56681;BME280;42558;52.388;13.390;2023-02-18T05:13:10;101119.91;;;4.88;84.26
56681;BME280;42558;52.388;13.390;2023-02-18T05:15:39;101121.24;;;4.87;84.21
56681;BME280;42558;52.388;13.390;2023-02-18T05:18:07;101127.39;;;4.88;84.14
56681;BME280;42558;52.388;13.390;2023-02-18T05:20:35;101123.33;;;4.91;83.87
56681;BME280;42558;52.388;13.390;2023-02-18T05:23:04;101123.86;;;4.91;83.86
56681;BME280;42558;52.388;13.390;2023-02-18T05:25:32;101121.31;;;4.89;84.01
56681;BME280;42558;52.388;13.390;2023-02-18T05:28:01;101122.49;;;4.92;83.66
56681;BME280;42558;52.388;13.390;2023-02-18T05:30:29;101114.23;;;4.99;83.06
56681;BME280;42558;52.388;13.390;2023-02-18T05:32:58;101116.33;;;4.95;83.55
56681;BME280;42558;52.388;13.390;2023-02-18T05:35:26;101115.79;;;4.98;83.27
56681;BME280;42558;52.388;13.390;2023-02-18T05:37:54;101113.99;;;4.97;83.69
56681;BME280;42558;52.388;13.390;2023-02-18T05:40:23;101114.20;;;4.94;83.76
56681;BME280;42558;52.388;13.390;2023-02-18T05:42:51;101114.14;;;5.05;83.03
56681;BME280;42558;52.388;13.390;2023-02-18T05:45:20;101112.05;;;5.05;83.08
56681;BME280;42558;52.388;13.390;2023-02-18T05:47:48;101107.75;;;5.06;82.87
56681;BME280;42558;52.388;13.390;2023-02-18T05:50:17;101105.77;;;5.04;83.27
56681;BME280;42558;52.388;13.390;2023-02-18T05:52:45;101102.88;;;5.10;82.68
56681;BME280;42558;52.388;13.390;2023-02-18T05:55:13;101098.46;;;5.13;82.48
56681;BME280;42558;52.388;13.390;2023-02-18T05:57:42;101104.14;;;5.15;82.33
56681;BME280;42558;52.388;13.390;2023-02-18T06:00:11;101108.34;;;5.16;82.48
56681;BME280;42558;52.388;13.390;2023-02-18T06:02:39;101106.98;;;5.16;82.70
56681;BME280;42558;52.388;13.390;2023-02-18T06:05:08;101106.13;;;5.18;82.36
56681;BME280;42558;52.388;13.390;2023-02-18T06:07:36;101106.06;;;5.20;82.43
56681;BME280;42558;52.388;13.390;2023-02-18T06:10:05;101107.44;;;5.20;82.43
56681;BME280;42558;52.388;13.390;2023-02-18T06:12:32;101106.48;;;5.17;82.67
56681;BME280;42558;52.388;13.390;2023-02-18T06:15:01;101109.52;;;5.24;82.38
56681;BME280;42558;52.388;13.390;2023-02-18T06:17:29;101106.75;;;5.20;82.79
56681;BME280;42558;52.388;13.390;2023-02-18T06:19:58;101101.70;;;5.15;83.19
56681;BME280;42558;52.388;13.390;2023-02-18T06:22:26;101102.47;;;5.13;83.29
56681;BME280;42558;52.388;13.390;2023-02-18T06:24:55;101101.73;;;5.08;83.72
56681;BME280;42558;52.388;13.390;2023-02-18T06:27:23;101099.56;;;5.06;84.02
56681;BME280;42558;52.388;13.390;2023-02-18T06:29:51;101109.27;;;5.09;83.67
56681;BME280;42558;52.388;13.390;2023-02-18T06:32:21;101104.54;;;5.13;83.81
56681;BME280;42558;52.388;13.390;2023-02-18T06:34:48;101104.84;;;5.11;84.12
56681;BME280;42558;52.388;13.390;2023-02-18T06:37:16;101103.62;;;5.11;84.29
56681;BME280;42558;52.388;13.390;2023-02-18T06:39:45;101103.52;;;5.14;84.11
56681;BME280;42558;52.388;13.390;2023-02-18T06:42:17;101103.96;;;5.11;84.56
56681;BME280;42558;52.388;13.390;2023-02-18T06:44:46;101099.66;;;5.17;83.83
56681;BME280;42558;52.388;13.390;2023-02-18T06:47:15;101096.77;;;5.23;83.23
56681;BME280;42558;52.388;13.390;2023-02-18T06:49:45;101095.36;;;5.27;83.48
56681;BME280;42558;52.388;13.390;2023-02-18T06:52:15;101096.86;;;5.26;83.26
56681;BME280;42558;52.388;13.390;2023-02-18T06:54:45;101092.84;;;5.26;83.60
56681;BME280;42558;52.388;13.390;2023-02-18T06:57:15;101090.86;;;5.28;83.52
56681;BME280;42558;52.388;13.390;2023-02-18T06:59:44;101084.64;;;5.29;83.37
56681;BME280;42558;52.388;13.390;2023-02-18T07:02:14;101085.68;;;5.34;83.23
56681;BME280;42558;52.388;13.390;2023-02-18T07:04:44;101086.33;;;5.45;82.61
56681;BME280;42558;52.388;13.390;2023-02-18T07:07:14;101088.09;;;5.50;82.65
56681;BME280;42558;52.388;13.390;2023-02-18T07:09:44;101087.61;;;5.65;81.79
56681;BME280;42558;52.388;13.390;2023-02-18T07:12:14;101086.70;;;5.59;82.94
56681;BME280;42558;52.388;13.390;2023-02-18T07:14:44;101084.41;;;5.59;83.16
56681;BME280;42558;52.388;13.390;2023-02-18T07:17:14;101087.11;;;5.61;83.39
56681;BME280;42558;52.388;13.390;2023-02-18T07:19:44;101093.83;;;5.55;85.34
56681;BME280;42558;52.388;13.390;2023-02-18T07:22:14;101093.38;;;5.43;86.74
56681;BME280;42558;52.388;13.390;2023-02-18T07:24:44;101098.00;;;5.41;86.99
56681;BME280;42558;52.388;13.390;2023-02-18T07:27:13;101100.81;;;5.33;88.05
56681;BME280;42558;52.388;13.390;2023-02-18T07:29:43;101096.23;;;5.31;88.01
56681;BME280;42558;52.388;13.390;2023-02-18T07:32:16;101094.65;;;5.40;86.84
56681;BME280;42558;52.388;13.390;2023-02-18T07:34:45;101097.81;;;5.41;87.37
56681;BME280;42558;52.388;13.390;2023-02-18T07:37:15;101088.20;;;5.35;88.70
56681;BME280;42558;52.388;13.390;2023-02-18T07:39:45;101091.70;;;5.27;90.89
56681;BME280;42558;52.388;13.390;2023-02-18T07:42:15;101093.90;;;5.16;92.69
56681;BME280;42558;52.388;13.390;2023-02-18T07:44:45;101091.55;;;5.15;92.23
56681;BME280;42558;52.388;13.390;2023-02-18T07:47:16;101080.56;;;5.10;93.17
56681;BME280;42558;52.388;13.390;2023-02-18T07:49:47;101066.81;;;5.07;94.26
56681;BME280;42558;52.388;13.390;2023-02-18T07:52:17;101065.73;;;5.06;94.70
56681;BME280;42558;52.388;13.390;2023-02-18T07:54:47;101063.28;;;5.01;95.84
56681;BME280;42558;52.388;13.390;2023-02-18T07:57:17;101051.11;;;4.97;96.96
56681;BME280;42558;52.388;13.390;2023-02-18T07:59:47;101047.80;;;4.97;97.97
56681;BME280;42558;52.388;13.390;2023-02-18T08:02:21;101049.39;;;4.93;99.44
56681;BME280;42558;52.388;13.390;2023-02-18T08:04:49;101048.02;;;4.90;100.00
56681;BME280;42558;52.388;13.390;2023-02-18T08:07:21;101052.20;;;4.86;100.00
56681;BME280;42558;52.388;13.390;2023-02-18T08:09:51;101050.90;;;4.83;100.00
56681;BME280;42558;52.388;13.390;2023-02-18T08:12:21;101039.27;;;4.81;100.00
56681;BME280;42558;52.388;13.390;2023-02-18T08:14:51;101036.27;;;4.80;100.00
56681;BME280;42558;52.388;13.390;2023-02-18T08:17:20;101031.98;;;4.77;100.00
56681;BME280;42558;52.388;13.390;2023-02-18T08:19:50;101031.09;;;4.76;100.00
56681;BME280;42558;52.388;13.390;2023-02-18T08:22:20;101028.83;;;4.76;100.00
56681;BME280;42558;52.388;13.390;2023-02-18T08:24:53;101015.20;;;4.76;100.00
56681;BME280;42558;52.388;13.390;2023-02-18T08:27:23;101009.96;;;4.75;100.00
56681;BME280;42558;52.388;13.390;2023-02-18T08:29:53;101008.30;;;4.73;100.00
56681;BME280;42558;52.388;13.390;2023-02-18T08:32:27;101009.80;;;4.76;100.00
56681;BME280;42558;52.388;13.390;2023-02-18T08:34:57;101004.55;;;4.79;100.00
56681;BME280;42558;52.388;13.390;2023-02-18T08:37:27;101000.32;;;4.82;100.00
56681;BME280;42558;52.388;13.390;2023-02-18T08:39:57;100998.44;;;4.83;100.00
56681;BME280;42558;52.388;13.390;2023-02-18T08:42:26;100993.13;;;4.85;100.00
56681;BME280;42558;52.388;13.390;2023-02-18T08:44:56;100989.80;;;4.85;100.00
56681;BME280;42558;52.388;13.390;2023-02-18T08:47:26;100978.02;;;4.86;100.00
56681;BME280;42558;52.388;13.390;2023-02-18T08:50:16;100982.30;;;4.93;100.00
56681;BME280;42558;52.388;13.390;2023-02-18T08:52:47;100979.38;;;4.94;100.00
56681;BME280;42558;52.388;13.390;2023-02-18T08:55:17;100971.90;;;4.95;100.00
56681;BME280;42558;52.388;13.390;2023-02-18T08:57:48;100965.23;;;4.94;100.00
56681;BME280;42558;52.388;13.390;2023-02-18T09:00:18;100965.51;;;4.91;100.00
56681;BME280;42558;52.388;13.390;2023-02-18T09:02:45;100964.40;;;4.90;100.00
56681;BME280;42558;52.388;13.390;2023-02-18T09:05:14;100961.73;;;4.89;100.00
56681;BME280;42558;52.388;13.390;2023-02-18T09:07:42;100963.66;;;4.89;100.00
56681;BME280;42558;52.388;13.390;2023-02-18T09:10:10;100959.52;;;4.94;100.00
56681;BME280;42558;52.388;13.390;2023-02-18T09:12:39;100950.30;;;4.99;100.00
56681;BME280;42558;52.388;13.390;2023-02-18T09:15:08;100942.09;;;4.94;100.00
56681;BME280;42558;52.388;13.390;2023-02-18T09:17:35;100932.20;;;4.95;100.00
56681;BME280;42558;52.388;13.390;2023-02-18T09:20:04;100924.14;;;4.98;100.00
56681;BME280;42558;52.388;13.390;2023-02-18T09:22:33;100926.31;;;4.91;100.00
56681;BME280;42558;52.388;13.390;2023-02-18T09:25:03;100915.66;;;4.91;100.00
56681;BME280;42558;52.388;13.390;2023-02-18T09:27:33;100916.58;;;4.92;100.00
56681;BME280;42558;52.388;13.390;2023-02-18T09:30:01;100910.60;;;4.86;100.00
56681;BME280;42558;52.388;13.390;2023-02-18T09:32:29;100907.90;;;4.93;100.00
56681;BME280;42558;52.388;13.390;2023-02-18T09:35:04;100904.98;;;4.90;100.00
56681;BME280;42558;52.388;13.390;2023-02-18T09:37:34;100900.85;;;4.86;100.00
56681;BME280;42558;52.388;13.390;2023-02-18T09:40:05;100887.17;;;4.93;100.00
56681;BME280;42558;52.388;13.390;2023-02-18T09:42:35;100894.35;;;4.94;100.00
56681;BME280;42558;52.388;13.390;2023-02-18T09:45:10;100887.75;;;5.04;100.00
56681;BME280;42558;52.388;13.390;2023-02-18T09:47:43;100881.48;;;5.04;100.00
56681;BME280;42558;52.388;13.390;2023-02-18T09:50:31;100866.28;;;5.12;100.00
56681;BME280;42558;52.388;13.390;2023-02-18T09:53:03;100868.95;;;5.18;100.00
56681;BME280;42558;52.388;13.390;2023-02-18T09:55:38;100855.29;;;5.21;100.00
56681;BME280;42558;52.388;13.390;2023-02-18T09:58:25;100846.08;;;5.27;100.00
56681;BME280;42558;52.388;13.390;2023-02-18T10:04:09;100825.70;;;5.27;100.00
56681;BME280;42558;52.388;13.390;2023-02-18T10:06:44;100827.34;;;5.29;100.00
56681;BME280;42558;52.388;13.390;2023-02-18T10:09:41;100821.30;;;5.26;100.00
56681;BME280;42558;52.388;13.390;2023-02-18T10:12:19;100813.95;;;5.20;100.00
56681;BME280;42558;52.388;13.390;2023-02-18T10:14:54;100811.88;;;5.21;100.00
56681;BME280;42558;52.388;13.390;2023-02-18T10:17:29;100817.47;;;5.26;100.00
56681;BME280;42558;52.388;13.390;2023-02-18T10:20:03;100821.05;;;5.24;100.00
56681;BME280;42558;52.388;13.390;2023-02-18T10:22:38;100816.52;;;5.29;100.00
56681;BME280;42558;52.388;13.390;2023-02-18T10:25:08;100797.93;;;5.26;100.00
56681;BME280;42558;52.388;13.390;2023-02-18T10:27:47;100790.10;;;5.16;100.00
56681;BME280;42558;52.388;13.390;2023-02-18T10:30:41;100781.34;;;5.19;100.00
56681;BME280;42558;52.388;13.390;2023-02-18T10:33:26;100777.55;;;5.21;100.00
56681;BME280;42558;52.388;13.390;2023-02-18T10:42:37;100741.54;;;5.33;100.00
56681;BME280;42558;52.388;13.390;2023-02-18T10:52:04;100705.96;;;5.32;100.00
56681;BME280;42558;52.388;13.390;2023-02-18T10:57:33;100686.59;;;5.31;100.00
56681;BME280;42558;52.388;13.390;2023-02-18T11:00:19;100683.21;;;5.30;100.00
56681;BME280;42558;52.388;13.390;2023-02-18T11:03:16;100670.98;;;5.29;100.00
56681;BME280;42558;52.388;13.390;2023-02-18T11:05:51;100664.14;;;5.33;100.00
56681;BME280;42558;52.388;13.390;2023-02-18T11:08:26;100652.97;;;5.43;100.00
56681;BME280;42558;52.388;13.390;2023-02-18T11:10:57;100637.11;;;5.43;100.00
56681;BME280;42558;52.388;13.390;2023-02-18T11:13:29;100626.95;;;5.42;100.00
56681;BME280;42558;52.388;13.390;2023-02-18T11:16:06;100612.33;;;5.48;100.00
56681;BME280;42558;52.388;13.390;2023-02-18T11:18:43;100601.90;;;5.60;100.00
56681;BME280;42558;52.388;13.390;2023-02-18T11:21:37;100594.34;;;5.58;100.00
56681;BME280;42558;52.388;13.390;2023-02-18T11:24:14;100585.42;;;5.52;100.00
56681;BME280;42558;52.388;13.390;2023-02-18T11:26:45;100582.95;;;5.56;100.00
56681;BME280;42558;52.388;13.390;2023-02-18T11:29:22;100578.38;;;5.60;100.00
56681;BME280;42558;52.388;13.390;2023-02-18T11:31:55;100566.99;;;5.64;100.00
56681;BME280;42558;52.388;13.390;2023-02-18T11:34:30;100561.23;;;5.64;100.00
56681;BME280;42558;52.388;13.390;2023-02-18T11:37:27;100563.17;;;5.65;100.00
56681;BME280;42558;52.388;13.390;2023-02-18T11:40:00;100553.71;;;5.64;100.00
56681;BME280;42558;52.388;13.390;2023-02-18T11:42:30;100545.59;;;5.66;100.00
56681;BME280;42558;52.388;13.390;2023-02-18T11:45:00;100534.75;;;5.65;100.00
56681;BME280;42558;52.388;13.390;2023-02-18T11:47:36;100530.30;;;5.74;100.00
56681;BME280;42558;52.388;13.390;2023-02-18T11:52:45;100516.52;;;5.86;100.00
56681;BME280;42558;52.388;13.390;2023-02-18T11:55:24;100503.46;;;5.92;100.00
56681;BME280;42558;52.388;13.390;2023-02-18T11:57:59;100496.36;;;6.06;100.00
56681;BME280;42558;52.388;13.390;2023-02-18T12:00:39;100488.83;;;6.19;100.00
56681;BME280;42558;52.388;13.390;2023-02-18T12:06:19;100474.39;;;6.34;100.00
56681;BME280;42558;52.388;13.390;2023-02-18T12:09:13;100464.79;;;6.41;100.00
56681;BME280;42558;52.388;13.390;2023-02-18T12:11:56;100451.23;;;6.50;100.00
56681;BME280;42558;52.388;13.390;2023-02-18T12:14:28;100450.75;;;6.58;100.00
56681;BME280;42558;52.388;13.390;2023-02-18T12:23:40;100432.08;;;6.96;100.00
56681;BME280;42558;52.388;13.390;2023-02-18T12:26:38;100428.77;;;7.13;100.00
56681;BME280;42558;52.388;13.390;2023-02-18T12:36:06;100414.67;;;7.57;100.00
56681;BME280;42558;52.388;13.390;2023-02-18T12:38:35;100412.36;;;7.74;100.00
56681;BME280;42558;52.388;13.390;2023-02-18T12:41:45;100411.59;;;7.78;100.00
56681;BME280;42558;52.388;13.390;2023-02-18T13:09:08;100373.09;;;8.83;100.00
56681;BME280;42558;52.388;13.390;2023-02-18T13:15:18;100357.17;;;8.98;100.00
56681;BME280;42558;52.388;13.390;2023-02-18T13:17:55;100354.58;;;9.01;100.00
56681;BME280;42558;52.388;13.390;2023-02-18T13:20:41;100352.91;;;9.07;100.00
56681;BME280;42558;52.388;13.390;2023-02-18T13:23:22;100343.87;;;9.14;100.00
56681;BME280;42558;52.388;13.390;2023-02-18T13:26:00;100346.39;;;9.18;100.00
56681;BME280;42558;52.388;13.390;2023-02-18T13:28:48;100336.10;;;9.23;100.00
56681;BME280;42558;52.388;13.390;2023-02-18T13:35:04;100328.21;;;9.38;100.00
56681;BME280;42558;52.388;13.390;2023-02-18T13:40:33;100328.13;;;9.48;100.00
56681;BME280;42558;52.388;13.390;2023-02-18T13:43:31;100339.29;;;9.42;100.00
56681;BME280;42558;52.388;13.390;2023-02-18T13:46:23;100335.91;;;9.37;100.00
56681;BME280;42558;52.388;13.390;2023-02-18T13:51:39;100335.86;;;9.32;100.00
56681;BME280;42558;52.388;13.390;2023-02-18T13:56:54;100324.88;;;9.23;100.00
56681;BME280;42558;52.388;13.390;2023-02-18T13:59:34;100331.71;;;9.23;100.00
56681;BME280;42558;52.388;13.390;2023-02-18T14:05:24;100336.39;;;9.18;100.00
56681;BME280;42558;52.388;13.390;2023-02-18T14:08:14;100331.85;;;9.20;100.00
56681;BME280;42558;52.388;13.390;2023-02-18T14:14:28;100325.55;;;9.21;100.00
56681;BME280;42558;52.388;13.390;2023-02-18T14:25:21;100339.12;;;8.97;100.00
56681;BME280;42558;52.388;13.390;2023-02-18T14:28:11;100333.46;;;8.95;100.00
56681;BME280;42558;52.388;13.390;2023-02-18T14:30:53;100338.44;;;9.01;100.00
56681;BME280;42558;52.388;13.390;2023-02-18T14:33:23;100342.38;;;9.08;100.00
56681;BME280;42558;52.388;13.390;2023-02-18T14:36:30;100345.04;;;9.08;100.00
56681;BME280;42558;52.388;13.390;2023-02-18T14:42:23;100346.23;;;9.06;100.00
56681;BME280;42558;52.388;13.390;2023-02-18T14:45:34;100341.52;;;9.07;100.00
56681;BME280;42558;52.388;13.390;2023-02-18T14:48:42;100339.56;;;9.06;100.00
56681;BME280;42558;52.388;13.390;2023-02-18T14:51:23;100340.06;;;9.04;100.00
56681;BME280;42558;52.388;13.390;2023-02-18T14:53:54;100340.59;;;9.04;100.00
56681;BME280;42558;52.388;13.390;2023-02-18T14:56:24;100348.95;;;8.99;100.00
56681;BME280;42558;52.388;13.390;2023-02-18T14:58:59;100353.36;;;9.03;100.00
56681;BME280;42558;52.388;13.390;2023-02-18T15:01:34;100351.20;;;9.11;100.00
56681;BME280;42558;52.388;13.390;2023-02-18T15:04:04;100349.80;;;9.11;100.00
56681;BME280;42558;52.388;13.390;2023-02-18T15:06:36;100345.71;;;9.08;100.00
56681;BME280;42558;52.388;13.390;2023-02-18T15:09:21;100353.84;;;9.11;100.00
56681;BME280;42558;52.388;13.390;2023-02-18T15:12:00;100359.12;;;9.13;100.00
56681;BME280;42558;52.388;13.390;2023-02-18T15:14:38;100361.05;;;9.15;100.00
56681;BME280;42558;52.388;13.390;2023-02-18T15:17:18;100364.20;;;9.14;100.00
56681;BME280;42558;52.388;13.390;2023-02-18T15:19:54;100369.27;;;9.11;100.00
56681;BME280;42558;52.388;13.390;2023-02-18T15:22:31;100375.60;;;9.13;100.00
56681;BME280;42558;52.388;13.390;2023-02-18T15:25:03;100392.41;;;9.11;100.00
56681;BME280;42558;52.388;13.390;2023-02-18T15:27:39;100395.16;;;9.08;100.00
56681;BME280;42558;52.388;13.390;2023-02-18T15:30:24;100385.15;;;9.06;100.00
56681;BME280;42558;52.388;13.390;2023-02-18T15:32:59;100385.44;;;9.00;100.00